Date,TemperatureHighF,TemperatureAvgF,TemperatureLowF,DewpointHighF,DewpointAvgF,DewpointLowF,HumidityHigh,HumidityAvg,HumidityLow,PressureMaxIn,PressureMinIn,WindSpeedMaxMPH,WindSpeedAvgMPH,GustSpeedMaxMPH,PrecipitationSumIn
2013-8-1,90.9,70.8,53.7,50.0,45.2,37.0,72,44,15,30.08,29.68,29,5,0,0.00
2013-8-2,87.2,74.2,56.7,55.0,39.1,15.0,82,37,7,29.88,29.72,19,4,0,0.01
2013-8-3,91.2,73.2,55.1,55.0,43.9,32.0,71,39,12,30.00,29.82,14,3,0,0.01
2013-8-4,91.4,75.1,58.6,56.0,46.3,31.0,75,42,13,29.98,29.80,15,3,0,0.00
2013-8-5,91.1,75.7,61.7,59.0,44.6,23.0,80,41,10,29.92,29.75,24,4,0,0.00
2013-8-6,88.9,73.1,56.9,46.0,39.6,29.0,54,32,12,29.95,29.79,18,4,0,0.00
2013-8-7,86.8,71.8,54.1,52.0,42.6,32.0,71,39,14,29.96,29.76,21,2,0,0.00
2013-8-8,82.5,70.3,58.2,51.0,45.1,32.0,69,43,17,30.01,29.85,17,3,0,0.00
2013-8-9,76.9,66.3,57.1,48.0,45.4,43.0,68,48,31,30.09,29.98,22,4,0,0.00
2013-8-10,84.9,68.6,55.3,53.0,44.5,35.0,77,47,17,30.11,29.97,17,3,0,0.00
2013-8-11,87.5,70.4,54.7,44.0,38.6,25.0,59,34,11,30.09,29.96,23,4,0,0.00
2013-8-12,82.1,69.1,55.8,48.0,40.5,33.0,61,38,17,30.06,30.00,16,2,0,0.00
2013-8-13,79.7,66.7,54.2,46.0,41.2,34.0,62,41,22,30.14,30.04,22,4,0,0.00
2013-8-14,82.1,67.7,51.9,44.0,38.0,29.0,70,38,15,30.14,29.96,12,2,0,0.00
2013-8-15,87.5,71.9,54.5,45.0,35.5,24.0,64,31,11,30.09,29.93,12,3,0,0.00
2013-8-16,92.3,75.1,55.1,46.0,33.3,19.0,47,26,7,30.04,29.88,9,1,0,0.00
2013-8-17,93.4,78.4,60.2,42.0,29.7,23.0,31,18,8,29.97,29.78,19,2,0,0.00
2013-8-18,92.6,80.5,66.5,45.0,37.1,30.0,36,22,12,29.89,29.76,19,3,0,0.01
2013-8-19,94.4,76.5,58.6,49.0,37.1,23.0,66,30,8,29.95,29.78,17,2,0,0.01
2013-8-20,88.2,77.3,67.1,47.0,38.2,25.0,34,25,17,29.89,29.77,12,2,0,0.00
2013-8-21,82.0,74.6,65.1,50.0,45.1,40.0,54,36,23,30.01,29.82,15,4,0,0.00
2013-8-22,87.2,72.7,60.9,53.0,49.9,46.0,72,47,26,30.06,29.87,10,2,0,0.00
2013-8-23,89.6,72.3,57.4,52.0,48.2,42.0,76,46,20,29.92,29.72,18,2,0,0.00
2013-8-24,86.2,72.5,62.2,51.0,45.7,40.0,67,41,21,29.90,29.79,13,3,0,0.00
2013-8-25,84.5,72.2,58.4,51.0,43.8,39.0,64,39,21,30.01,29.88,20,4,0,0.00
2013-8-26,82.9,72.1,60.7,52.0,47.2,42.0,64,43,27,29.98,29.89,19,3,0,0.00
2013-8-27,85.4,72.2,60.4,51.0,47.6,45.0,62,44,27,30.01,29.88,22,2,0,0.00
2013-8-28,89.0,74.7,59.9,53.0,47.3,41.0,67,42,20,29.98,29.86,12,2,0,0.00
2013-8-29,89.3,74.9,61.3,49.0,45.2,41.0,53,36,20,30.05,29.92,9,2,0,0.00
2013-8-30,88.4,73.4,56.3,51.0,45.7,38.0,76,41,18,30.06,29.88,19,2,0,0.00
2013-8-31,88.1,72.6,59.0,45.0,40.8,30.0,55,34,13,30.02,29.87,16,5,0,0.00